createdAt,value
2022-12-04T00:00:51.872Z,32.78
2022-12-04T00:03:18.689Z,32.92
2022-12-04T00:05:45.538Z,33.03
2022-12-04T00:08:12.431Z,34.30
2022-12-04T00:10:43.856Z,33.72
2022-12-04T00:13:10.707Z,33.70
2022-12-04T00:15:42.413Z,34.65
2022-12-04T00:18:09.172Z,35.88
2022-12-04T00:20:39.763Z,33.70
2022-12-04T00:23:07.245Z,32.47
2022-12-04T00:25:41.179Z,33.60
2022-12-04T00:28:08.765Z,33.28
2022-12-04T00:30:35.562Z,34.90
2022-12-04T00:33:02.343Z,33.63
2022-12-04T00:35:29.085Z,34.15
2022-12-04T00:37:55.831Z,35.85
2022-12-04T00:40:22.584Z,33.83
2022-12-04T00:42:49.540Z,33.50
2022-12-04T00:45:16.571Z,34.30
2022-12-04T00:47:43.354Z,35.30
2022-12-04T00:50:10.944Z,34.25
2022-12-04T00:52:37.793Z,35.28
2022-12-04T00:55:05.018Z,35.22
2022-12-04T00:57:31.931Z,33.60
2022-12-04T00:59:58.714Z,33.63
2022-12-04T01:02:25.550Z,32.95
2022-12-04T01:04:52.370Z,33.22
2022-12-04T01:07:19.206Z,35.92
2022-12-04T01:09:46.027Z,35.17
2022-12-04T01:12:17.584Z,34.85
2022-12-04T01:14:47.294Z,36.05
2022-12-04T01:17:14.200Z,34.95
2022-12-04T01:19:41.113Z,35.63
2022-12-04T01:22:07.941Z,35.05
2022-12-04T01:24:34.849Z,35.40
2022-12-04T01:27:01.903Z,35.38
2022-12-04T01:29:28.708Z,35.85
2022-12-04T01:31:55.724Z,36.00
2022-12-04T01:34:22.636Z,34.30
2022-12-04T01:36:49.490Z,33.78
2022-12-04T01:39:16.339Z,34.42
2022-12-04T01:41:43.215Z,34.70
2022-12-04T01:44:16.689Z,35.53
2022-12-04T01:46:57.418Z,36.30
2022-12-04T01:49:26.642Z,34.97
2022-12-04T01:51:58.239Z,36.30
2022-12-04T01:54:29.668Z,36.10
2022-12-04T01:57:04.402Z,34.90
2022-12-04T01:59:37.843Z,34.90
2022-12-04T02:02:11.750Z,35.78
2022-12-04T02:04:40.417Z,37.08
2022-12-04T02:07:07.795Z,35.65
2022-12-04T02:09:35.384Z,36.08
2022-12-04T02:12:14.073Z,36.63
2022-12-04T02:15:02.668Z,35.95
2022-12-04T02:17:56.184Z,34.88
2022-12-04T02:20:33.708Z,35.85
2022-12-04T02:23:03.494Z,37.13
2022-12-04T02:26:04.124Z,34.53
2022-12-04T02:28:49.481Z,36.05
2022-12-04T02:31:35.659Z,36.38
2022-12-04T02:34:29.420Z,37.42
2022-12-04T02:37:03.823Z,37.17
2022-12-04T02:39:38.606Z,35.47
2022-12-04T02:42:16.773Z,35.35
2022-12-04T02:44:49.707Z,36.63
2022-12-04T02:47:21.008Z,36.28
2022-12-04T02:49:55.110Z,39.13
2022-12-04T02:52:29.058Z,36.28
2022-12-04T02:55:05.333Z,36.75
2022-12-04T02:57:38.719Z,36.15
2022-12-04T03:00:08.874Z,36.20
2022-12-04T03:02:46.306Z,38.22
2022-12-04T03:05:17.459Z,37.30
2022-12-04T03:07:55.847Z,35.92
2022-12-04T03:10:31.707Z,38.00
2022-12-04T03:13:07.920Z,37.13
2022-12-04T03:15:43.968Z,37.20
2022-12-04T03:18:20.010Z,38.67
2022-12-04T03:20:50.014Z,37.67
2022-12-04T03:23:22.464Z,36.83
2022-12-04T03:26:07.617Z,38.07
2022-12-04T03:28:41.099Z,36.45
2022-12-04T03:31:11.005Z,37.00
2022-12-04T03:33:47.496Z,36.88
2022-12-04T03:36:19.550Z,35.97
2022-12-04T03:38:55.162Z,37.03
2022-12-04T03:41:27.343Z,36.70
2022-12-04T03:44:02.545Z,36.60
2022-12-04T03:46:32.208Z,39.17
2022-12-04T03:49:44.690Z,36.17
2022-12-04T03:52:24.735Z,36.70
2022-12-04T03:55:08.652Z,36.92
2022-12-04T03:57:40.423Z,36.50
2022-12-04T04:00:18.364Z,36.17
2022-12-04T04:03:10.520Z,33.42
2022-12-04T04:05:42.992Z,35.80
2022-12-04T04:08:26.331Z,39.07
2022-12-04T04:11:12.580Z,38.88
2022-12-04T04:14:12.426Z,38.30
2022-12-04T04:17:02.660Z,37.72
2022-12-04T04:19:53.633Z,37.72
2022-12-04T04:22:41.720Z,36.05
2022-12-04T04:25:13.307Z,37.28
2022-12-04T04:27:40.149Z,36.97
2022-12-04T04:30:09.156Z,37.70
2022-12-04T04:32:48.877Z,36.97
2022-12-04T04:35:27.588Z,38.22
2022-12-04T04:38:08.500Z,38.35
2022-12-04T04:40:54.564Z,36.70
2022-12-04T04:43:41.588Z,38.60
2022-12-04T04:46:18.803Z,35.60
2022-12-04T04:48:50.458Z,36.60
2022-12-04T04:51:18.342Z,34.70
2022-12-04T04:53:50.151Z,36.30
2022-12-04T04:56:17.237Z,38.25
2022-12-04T04:58:44.402Z,35.92
2022-12-04T05:01:29.521Z,36.17
2022-12-04T05:03:56.362Z,37.33
2022-12-04T05:06:23.123Z,38.17
2022-12-04T05:08:49.889Z,37.05
2022-12-04T05:11:17.692Z,38.00
2022-12-04T05:13:44.650Z,36.83
2022-12-04T05:16:14.258Z,36.25
2022-12-04T05:18:41.648Z,36.65
2022-12-04T05:21:16.020Z,36.30
2022-12-04T05:23:42.910Z,36.63
2022-12-04T05:26:09.860Z,36.10
2022-12-04T05:28:36.644Z,34.65
2022-12-04T05:31:04.087Z,37.10
2022-12-04T05:33:31.115Z,34.85
2022-12-04T05:36:04.186Z,37.10
2022-12-04T05:38:31.215Z,37.00
2022-12-04T05:40:59.269Z,37.45
2022-12-04T05:43:26.486Z,36.80
2022-12-04T05:45:53.563Z,37.30
2022-12-04T05:48:20.704Z,35.92
2022-12-04T05:50:47.492Z,33.75
2022-12-04T05:53:14.282Z,35.33
2022-12-04T05:55:41.071Z,36.30
2022-12-04T05:58:07.834Z,36.00
2022-12-04T06:00:34.724Z,34.38
2022-12-04T06:03:01.547Z,35.08
2022-12-04T06:05:28.481Z,34.53
2022-12-04T06:07:55.427Z,36.45
2022-12-04T06:10:22.387Z,33.55
2022-12-04T06:12:49.207Z,33.92
2022-12-04T06:15:16.000Z,32.95
2022-12-04T06:17:42.780Z,35.70
2022-12-04T06:20:11.898Z,35.00
2022-12-04T06:22:39.075Z,34.35
2022-12-04T06:25:07.057Z,35.17
2022-12-04T06:27:34.015Z,36.78
2022-12-04T06:30:01.014Z,35.22
2022-12-04T06:32:28.093Z,37.22
2022-12-04T06:34:55.429Z,36.20
2022-12-04T06:37:24.645Z,34.45
2022-12-04T06:39:51.503Z,36.08
2022-12-04T06:42:18.704Z,36.92
2022-12-04T06:44:45.890Z,36.55
2022-12-04T06:47:12.751Z,36.03
2022-12-04T06:49:39.590Z,34.45
2022-12-04T06:52:06.374Z,35.47
2022-12-04T06:54:33.124Z,34.10
2022-12-04T06:56:59.890Z,36.08
2022-12-04T06:59:27.995Z,35.72
2022-12-04T07:01:54.857Z,34.67
2022-12-04T07:04:21.798Z,37.33
2022-12-04T07:06:48.584Z,37.35
2022-12-04T07:09:17.308Z,35.38
2022-12-04T07:11:44.987Z,36.58
2022-12-04T07:14:13.282Z,34.30
2022-12-04T07:16:41.964Z,35.35
2022-12-04T07:19:14.365Z,36.33
2022-12-04T07:21:42.284Z,36.17
2022-12-04T07:24:16.072Z,38.25
2022-12-04T07:26:43.465Z,35.60
2022-12-04T07:29:10.724Z,35.90
2022-12-04T07:31:38.427Z,36.75
2022-12-04T07:34:05.341Z,39.45
2022-12-04T07:36:35.233Z,36.80
2022-12-04T07:39:02.108Z,39.58
2022-12-04T07:41:29.118Z,36.75
2022-12-04T07:43:55.942Z,37.88
2022-12-04T07:46:25.856Z,38.40
2022-12-04T07:48:57.623Z,35.70
2022-12-04T07:51:27.134Z,38.28
2022-12-04T07:53:54.956Z,39.42
2022-12-04T07:56:21.967Z,38.67
2022-12-04T07:58:49.021Z,37.40
2022-12-04T08:01:18.654Z,38.50
2022-12-04T08:03:48.458Z,37.90
2022-12-04T08:06:18.316Z,39.90
2022-12-04T08:08:45.637Z,39.47
2022-12-04T08:11:15.263Z,38.03
2022-12-04T08:13:42.437Z,37.22
2022-12-04T08:16:11.527Z,38.53
2022-12-04T08:18:38.657Z,37.38
2022-12-04T08:21:09.931Z,36.45
2022-12-04T08:23:38.119Z,38.13
2022-12-04T08:26:05.834Z,39.55
2022-12-04T08:28:32.976Z,39.40
2022-12-04T08:31:08.762Z,38.90
2022-12-04T08:33:36.076Z,37.78
2022-12-04T08:36:06.926Z,37.70
2022-12-04T08:38:33.852Z,38.22
2022-12-04T08:41:05.329Z,37.58
2022-12-04T08:43:32.869Z,33.72
2022-12-04T08:46:01.675Z,36.50
2022-12-04T08:48:29.055Z,36.45
2022-12-04T08:50:56.393Z,37.08
2022-12-04T08:53:24.212Z,36.30
2022-12-04T08:55:51.845Z,34.60
2022-12-04T08:58:19.277Z,37.15
2022-12-04T09:00:46.355Z,35.60
2022-12-04T09:03:18.118Z,37.88
2022-12-04T09:05:48.241Z,38.53
2022-12-04T09:08:16.902Z,38.33
2022-12-04T09:10:44.755Z,38.42
2022-12-04T09:13:11.800Z,35.45
2022-12-04T09:15:39.938Z,38.05
2022-12-04T09:18:07.735Z,37.65
2022-12-04T09:20:35.455Z,35.72
2022-12-04T09:23:05.090Z,37.58
2022-12-04T09:25:35.805Z,36.92
2022-12-04T09:28:02.826Z,39.10
2022-12-04T09:30:30.189Z,35.67
2022-12-04T09:32:57.050Z,38.50
2022-12-04T09:35:24.005Z,37.28
2022-12-04T09:37:50.818Z,37.70
2022-12-04T09:40:37.221Z,37.85
2022-12-04T09:43:31.639Z,36.30
2022-12-04T09:46:08.229Z,36.35
2022-12-04T09:48:39.324Z,37.60
2022-12-04T09:51:07.124Z,37.85
2022-12-04T09:53:48.808Z,37.78
2022-12-04T09:56:19.898Z,35.70
2022-12-04T09:59:05.984Z,36.60
2022-12-04T10:01:47.794Z,36.55
2022-12-04T10:04:15.576Z,38.22
2022-12-04T10:06:56.033Z,37.40
2022-12-04T10:09:32.287Z,39.30
2022-12-04T10:12:25.475Z,35.38
2022-12-04T10:15:04.555Z,37.60
2022-12-04T10:17:42.443Z,36.97
2022-12-04T10:20:24.218Z,34.83
2022-12-04T10:22:59.834Z,36.03
2022-12-04T10:25:28.386Z,34.45
2022-12-04T10:28:02.145Z,36.33
2022-12-04T10:30:33.944Z,35.13
2022-12-04T10:33:15.900Z,33.97
2022-12-04T10:35:45.796Z,34.22
2022-12-04T10:38:39.651Z,33.13
2022-12-04T10:43:47.570Z,33.47
2022-12-04T10:46:23.246Z,30.70
2022-12-04T10:48:57.955Z,31.63
2022-12-04T10:51:24.770Z,31.42
2022-12-04T10:53:52.541Z,31.95
2022-12-04T10:56:24.921Z,29.90
2022-12-04T10:58:59.905Z,30.63
2022-12-04T11:01:29.136Z,28.40
2022-12-04T11:04:01.862Z,29.02
2022-12-04T11:06:29.648Z,27.83
2022-12-04T11:08:58.543Z,26.13
2022-12-04T11:11:32.543Z,26.13
2022-12-04T11:14:17.430Z,25.90
2022-12-04T11:16:48.242Z,24.83
2022-12-04T11:19:32.526Z,23.10
2022-12-04T11:22:05.978Z,24.70
2022-12-04T11:24:35.650Z,21.65
2022-12-04T11:27:07.541Z,20.83
2022-12-04T11:29:43.038Z,19.77
2022-12-04T11:32:26.311Z,20.02
2022-12-04T11:34:57.720Z,20.73
2022-12-04T11:37:34.017Z,21.05
2022-12-04T11:40:05.381Z,20.83
2022-12-04T11:42:33.120Z,22.63
2022-12-04T11:45:18.512Z,21.80
2022-12-04T11:47:57.149Z,21.67
2022-12-04T11:50:51.342Z,21.17
2022-12-04T11:53:32.135Z,22.77
2022-12-04T11:56:14.313Z,19.98
2022-12-04T11:59:10.989Z,21.00
2022-12-04T12:02:04.189Z,21.50
2022-12-04T12:04:49.817Z,21.60
2022-12-04T12:07:22.675Z,22.65
2022-12-04T12:10:04.000Z,21.10
2022-12-04T12:12:30.823Z,23.20
2022-12-04T12:15:03.755Z,22.23
2022-12-04T12:18:06.460Z,19.90
2022-12-04T12:20:41.291Z,22.50
2022-12-04T12:23:45.912Z,21.23
2022-12-04T12:26:16.438Z,22.23
2022-12-04T12:29:00.602Z,20.70
2022-12-04T12:31:52.301Z,22.08
2022-12-04T12:34:37.493Z,22.25
2022-12-04T12:37:40.316Z,23.95
2022-12-04T12:40:14.553Z,22.38
2022-12-04T12:42:58.416Z,21.38
2022-12-04T12:45:43.834Z,21.73
2022-12-04T12:48:23.417Z,22.48
2022-12-04T12:51:29.264Z,22.50
2022-12-04T12:54:03.018Z,22.55
2022-12-04T12:56:35.769Z,23.45
2022-12-04T12:59:06.104Z,20.88
2022-12-04T13:01:47.856Z,23.65
2022-12-04T13:04:29.219Z,23.50
2022-12-04T13:07:17.108Z,22.98
2022-12-04T13:10:11.450Z,23.52
2022-12-04T13:13:02.291Z,23.83
2022-12-04T13:15:44.670Z,22.67
2022-12-04T13:18:30.985Z,21.80
2022-12-04T13:21:06.544Z,23.88
2022-12-04T13:24:10.429Z,24.17
2022-12-04T13:27:01.965Z,23.45
2022-12-04T13:29:52.956Z,21.90
2022-12-04T13:32:27.533Z,22.80
2022-12-04T13:35:24.331Z,21.85
2022-12-04T13:38:21.145Z,22.45
2022-12-04T13:41:03.158Z,21.63
2022-12-04T13:43:37.477Z,23.92
2022-12-04T13:46:23.466Z,23.23
2022-12-04T13:48:50.323Z,25.08
2022-12-04T13:51:38.944Z,23.33
2022-12-04T13:54:11.390Z,24.33
2022-12-04T13:56:50.431Z,24.25
2022-12-04T13:59:32.124Z,25.30
2022-12-04T14:02:07.723Z,24.45
2022-12-04T14:04:46.408Z,23.80
2022-12-04T14:07:43.821Z,22.17
2022-12-04T14:10:16.965Z,25.85
2022-12-04T14:12:57.454Z,25.25
2022-12-04T14:15:27.755Z,25.35
2022-12-04T14:18:16.403Z,25.02
2022-12-04T14:20:44.766Z,23.70
2022-12-04T14:23:26.162Z,25.95
2022-12-04T14:25:57.042Z,25.02
2022-12-04T14:28:42.053Z,24.98
2022-12-04T14:31:21.385Z,25.45
2022-12-04T14:34:01.426Z,25.60
2022-12-04T14:36:41.550Z,26.48
2022-12-04T14:39:26.530Z,25.42
2022-12-04T14:42:04.154Z,27.85
2022-12-04T14:44:31.955Z,28.92
2022-12-04T14:47:25.275Z,26.95
2022-12-04T14:50:20.766Z,27.90
2022-12-04T14:53:12.891Z,30.27
2022-12-04T14:55:57.691Z,27.30
2022-12-04T14:58:31.910Z,25.92
2022-12-04T15:01:04.199Z,26.65
2022-12-04T15:03:41.462Z,25.67
2022-12-04T15:06:14.642Z,25.20
2022-12-04T15:08:53.530Z,25.92
2022-12-04T15:11:40.555Z,26.33
2022-12-04T15:14:16.178Z,26.90
2022-12-04T15:16:43.499Z,26.30
2022-12-04T15:19:18.260Z,26.63
2022-12-04T15:21:45.331Z,25.60
2022-12-04T15:24:23.486Z,27.08
2022-12-04T15:26:53.416Z,26.70
2022-12-04T15:29:27.951Z,26.77
2022-12-04T15:31:58.533Z,26.42
2022-12-04T15:34:41.894Z,29.17
2022-12-04T15:37:20.898Z,27.05
2022-12-04T15:39:51.819Z,26.40
2022-12-04T15:42:22.380Z,25.02
2022-12-04T15:45:01.331Z,26.27
2022-12-04T15:47:51.633Z,26.70
2022-12-04T15:50:18.388Z,25.40
2022-12-04T15:52:57.350Z,23.08
2022-12-04T15:55:25.998Z,24.88
2022-12-04T15:58:02.603Z,24.98
2022-12-04T16:00:42.421Z,26.35
2022-12-04T16:03:31.179Z,26.15
2022-12-04T16:06:08.890Z,30.20
2022-12-04T16:08:38.821Z,25.15
2022-12-04T16:11:38.332Z,25.55
2022-12-04T16:14:17.075Z,24.20
2022-12-04T16:16:52.464Z,26.90
2022-12-04T16:19:37.291Z,23.80
2022-12-04T16:22:19.413Z,23.40
2022-12-04T16:24:47.693Z,24.30
2022-12-04T16:27:17.380Z,24.65
2022-12-04T16:29:45.466Z,23.27
2022-12-04T16:32:18.701Z,22.58
2022-12-04T16:37:15.167Z,22.63
2022-12-04T16:39:42.087Z,22.33
2022-12-04T16:42:17.335Z,23.13
2022-12-04T16:44:44.747Z,23.33
2022-12-04T16:47:12.843Z,23.30
2022-12-04T16:49:40.586Z,23.58
2022-12-04T16:52:08.168Z,23.15
2022-12-04T16:54:35.120Z,23.77
2022-12-04T16:57:02.031Z,23.70
2022-12-04T16:59:28.909Z,24.70
2022-12-04T17:01:56.085Z,22.70
2022-12-04T17:04:23.198Z,24.48
2022-12-04T17:06:50.404Z,24.27
2022-12-04T17:09:17.417Z,26.23
2022-12-04T17:11:45.190Z,25.17
2022-12-04T17:14:12.288Z,26.33
2022-12-04T17:16:42.106Z,26.10
2022-12-04T17:19:10.738Z,25.40
2022-12-04T17:21:38.397Z,25.98
2022-12-04T17:24:05.798Z,26.58
2022-12-04T17:26:32.831Z,26.77
2022-12-04T17:28:59.975Z,26.77
2022-12-04T17:31:27.399Z,26.50
2022-12-04T17:33:55.819Z,28.27
2022-12-04T17:36:25.164Z,26.63
2022-12-04T17:38:57.206Z,25.70
2022-12-04T17:41:24.497Z,25.45
2022-12-04T17:43:51.420Z,26.33
2022-12-04T17:46:21.713Z,26.30
2022-12-04T17:48:49.266Z,26.90
2022-12-04T17:51:18.977Z,25.23
2022-12-04T17:53:48.244Z,25.10
2022-12-04T17:56:18.474Z,26.52
2022-12-04T17:58:46.252Z,24.80
2022-12-04T18:01:18.577Z,25.60
2022-12-04T18:03:50.256Z,25.53
2022-12-04T18:06:23.284Z,24.58
2022-12-04T18:08:51.259Z,26.30
2022-12-04T18:11:23.054Z,27.77
2022-12-04T18:13:55.235Z,26.05
2022-12-04T18:16:22.276Z,25.23
2022-12-04T18:18:50.730Z,23.95
2022-12-04T18:21:17.602Z,25.77
2022-12-04T18:23:46.044Z,23.75
2022-12-04T18:26:22.686Z,25.25
2022-12-04T18:28:50.279Z,24.50
2022-12-04T18:31:18.904Z,24.02
2022-12-04T18:33:46.261Z,24.98
2022-12-04T18:36:32.532Z,26.77
2022-12-04T18:39:02.226Z,25.17
2022-12-04T18:41:29.389Z,26.05
2022-12-04T18:43:56.734Z,28.80
2022-12-04T18:46:24.461Z,28.17
2022-12-04T18:48:54.362Z,27.55
2022-12-04T18:51:27.073Z,24.92
2022-12-04T18:53:57.201Z,26.17
2022-12-04T18:56:24.343Z,25.70
2022-12-04T18:59:00.692Z,24.88
2022-12-04T19:01:28.640Z,26.55
2022-12-04T19:03:57.642Z,25.17
2022-12-04T19:06:33.885Z,26.20
2022-12-04T19:09:02.455Z,28.17
2022-12-04T19:11:29.420Z,25.13
2022-12-04T19:13:58.143Z,24.95
2022-12-04T19:16:25.489Z,25.30
2022-12-04T19:18:52.367Z,24.75
2022-12-04T19:21:19.614Z,25.45
2022-12-04T19:23:56.641Z,25.55
2022-12-04T19:26:23.580Z,26.27
2022-12-04T19:28:51.955Z,25.83
2022-12-04T19:31:20.572Z,25.63
2022-12-04T19:33:47.989Z,25.38
2022-12-04T19:36:15.534Z,23.08
2022-12-04T19:38:42.814Z,23.42
2022-12-04T19:41:14.106Z,25.80
2022-12-04T19:43:44.671Z,24.10
2022-12-04T19:46:14.219Z,26.95
2022-12-04T19:48:41.937Z,25.40
2022-12-04T19:51:12.375Z,26.95
2022-12-04T19:53:41.366Z,25.63
2022-12-04T19:56:17.288Z,26.05
2022-12-04T19:58:44.602Z,24.65
2022-12-04T20:01:14.535Z,24.27
2022-12-04T20:03:42.102Z,23.90
2022-12-04T20:06:11.696Z,23.20
2022-12-04T20:08:39.373Z,24.33
2022-12-04T20:11:18.350Z,23.27
2022-12-04T20:13:46.824Z,24.02
2022-12-04T20:16:16.672Z,22.88
2022-12-04T20:18:44.116Z,24.75
2022-12-04T20:21:12.036Z,24.00
2022-12-04T20:23:53.967Z,23.65
2022-12-04T20:26:26.920Z,24.45
2022-12-04T20:28:56.173Z,24.13
2022-12-04T20:31:37.285Z,24.52
2022-12-04T20:34:07.638Z,24.60
2022-12-04T20:36:41.557Z,23.40
2022-12-04T20:39:09.499Z,23.33
2022-12-04T20:41:37.380Z,25.83
2022-12-04T20:44:06.758Z,26.73
2022-12-04T20:46:36.484Z,25.95
2022-12-04T20:49:07.248Z,25.73
2022-12-04T20:51:37.545Z,25.00
2022-12-04T20:54:05.362Z,26.67
2022-12-04T20:56:34.258Z,25.42
2022-12-04T20:59:07.678Z,25.38
2022-12-04T21:01:35.574Z,28.10
2022-12-04T21:04:04.295Z,27.90
2022-12-04T21:06:37.912Z,27.20
2022-12-04T21:09:07.315Z,26.60
2022-12-04T21:11:37.196Z,28.55
2022-12-04T21:14:30.715Z,26.58
2022-12-04T21:16:58.173Z,27.02
2022-12-04T21:19:25.255Z,29.02
2022-12-04T21:21:52.467Z,28.98
2022-12-04T21:24:21.858Z,27.52
2022-12-04T21:26:48.771Z,26.02
2022-12-04T21:29:16.335Z,27.67
2022-12-04T21:31:43.329Z,28.05
2022-12-04T21:34:12.831Z,28.15
2022-12-04T21:36:39.820Z,25.98
2022-12-04T21:39:07.639Z,25.75
2022-12-04T21:41:53.545Z,27.80
2022-12-04T21:44:21.314Z,26.25
2022-12-04T21:46:51.088Z,26.58
2022-12-04T21:49:19.124Z,26.70
2022-12-04T21:51:57.143Z,25.90
2022-12-04T21:54:25.019Z,29.00
2022-12-04T21:56:51.859Z,28.30
2022-12-04T21:59:18.815Z,26.65
2022-12-04T22:01:45.960Z,27.40
2022-12-04T22:04:13.020Z,26.27
2022-12-04T22:06:40.089Z,27.48
2022-12-04T22:09:09.227Z,26.73
2022-12-04T22:11:36.896Z,25.73
2022-12-04T22:14:04.266Z,26.73
2022-12-04T22:16:32.832Z,25.92
2022-12-04T22:19:01.616Z,26.67
2022-12-04T22:21:28.816Z,27.13
2022-12-04T22:24:01.201Z,26.55
2022-12-04T22:26:29.722Z,24.63
2022-12-04T22:28:56.679Z,26.80
2022-12-04T22:31:26.039Z,27.02
2022-12-04T22:33:55.307Z,26.67
2022-12-04T22:36:25.256Z,26.38
2022-12-04T22:39:08.922Z,27.40
2022-12-04T22:41:36.629Z,27.30
2022-12-04T22:44:03.821Z,26.05
2022-12-04T22:46:30.789Z,25.52
2022-12-04T22:48:58.975Z,24.40
2022-12-04T22:51:27.040Z,25.67
2022-12-04T22:53:56.244Z,25.65
2022-12-04T22:56:31.679Z,25.02
2022-12-04T22:58:59.587Z,25.25
2022-12-04T23:01:28.679Z,26.20
2022-12-04T23:03:55.839Z,25.50
2022-12-04T23:06:24.477Z,27.35
2022-12-04T23:09:03.927Z,24.02
2022-12-04T23:11:30.998Z,24.35
2022-12-04T23:14:01.690Z,23.80
2022-12-04T23:16:30.931Z,26.73
2022-12-04T23:18:57.982Z,24.42
2022-12-04T23:21:25.779Z,24.92
2022-12-04T23:23:54.296Z,23.58
2022-12-04T23:26:26.616Z,24.02
2022-12-04T23:28:54.760Z,22.70
2022-12-04T23:31:22.157Z,23.90
2022-12-04T23:33:49.063Z,23.00
2022-12-04T23:36:16.813Z,24.27
2022-12-04T23:38:44.423Z,23.63
2022-12-04T23:41:28.341Z,22.40
2022-12-04T23:43:57.416Z,23.08
2022-12-04T23:46:28.886Z,24.70
2022-12-04T23:48:55.870Z,23.65
2022-12-04T23:51:23.108Z,22.50
2022-12-04T23:53:51.310Z,21.30
2022-12-04T23:56:23.580Z,21.25
2022-12-04T23:58:52.290Z,20.42
